sensor_id;sensor_type;location;lat;lon;timestamp;P1;durP1;ratioP1;P2;durP2;ratioP2
63581;SDS011;49727;51.078;17.066;2022-09-01T00:01:10;7.00;;;3.30;;
63581;SDS011;49727;51.078;17.066;2022-09-01T00:16:17;6.53;;;2.47;;
63581;SDS011;49727;51.078;17.066;2022-09-01T00:31:20;4.83;;;2.60;;
63581;SDS011;49727;51.078;17.066;2022-09-01T00:46:23;9.90;;;2.70;;
63581;SDS011;49727;51.078;17.066;2022-09-01T01:01:28;4.43;;;2.10;;
63581;SDS011;49727;51.078;17.066;2022-09-01T01:16:28;3.38;;;1.92;;
63581;SDS011;49727;51.078;17.066;2022-09-01T01:31:28;5.65;;;2.47;;
63581;SDS011;49727;51.078;17.066;2022-09-01T01:46:32;5.40;;;2.70;;
63581;SDS011;49727;51.078;17.066;2022-09-01T02:01:34;4.83;;;1.87;;
63581;SDS011;49727;51.078;17.066;2022-09-01T02:16:35;5.10;;;2.53;;
63581;SDS011;49727;51.078;17.066;2022-09-01T02:31:36;4.05;;;2.00;;
63581;SDS011;49727;51.078;17.066;2022-09-01T02:46:40;6.60;;;2.37;;
63581;SDS011;49727;51.078;17.066;2022-09-01T03:16:47;7.20;;;2.00;;
63581;SDS011;49727;51.078;17.066;2022-09-01T03:31:48;5.95;;;1.77;;
63581;SDS011;49727;51.078;17.066;2022-09-01T03:46:48;5.97;;;2.25;;
63581;SDS011;49727;51.078;17.066;2022-09-01T04:01:49;4.80;;;2.10;;
63581;SDS011;49727;51.078;17.066;2022-09-01T04:16:50;7.95;;;2.50;;
63581;SDS011;49727;51.078;17.066;2022-09-01T04:32:09;5.50;;;2.30;;
63581;SDS011;49727;51.078;17.066;2022-09-01T04:47:11;7.07;;;2.90;;
63581;SDS011;49727;51.078;17.066;2022-09-01T05:02:15;8.67;;;2.70;;
63581;SDS011;49727;51.078;17.066;2022-09-01T05:17:16;8.60;;;2.92;;
63581;SDS011;49727;51.078;17.066;2022-09-01T05:32:17;7.70;;;2.57;;
63581;SDS011;49727;51.078;17.066;2022-09-01T05:47:17;8.30;;;3.22;;
63581;SDS011;49727;51.078;17.066;2022-09-01T06:02:21;4.60;;;2.20;;
63581;SDS011;49727;51.078;17.066;2022-09-01T06:17:24;7.73;;;2.90;;
63581;SDS011;49727;51.078;17.066;2022-09-01T06:32:25;4.10;;;2.47;;
63581;SDS011;49727;51.078;17.066;2022-09-01T06:47:26;8.23;;;2.03;;
63581;SDS011;49727;51.078;17.066;2022-09-01T07:02:29;3.50;;;1.90;;
63581;SDS011;49727;51.078;17.066;2022-09-01T07:17:31;3.17;;;1.63;;
63581;SDS011;49727;51.078;17.066;2022-09-01T07:32:31;5.18;;;1.67;;
63581;SDS011;49727;51.078;17.066;2022-09-01T07:47:32;4.73;;;1.17;;
63581;SDS011;49727;51.078;17.066;2022-09-01T08:02:36;11.27;;;1.50;;
63581;SDS011;49727;51.078;17.066;2022-09-01T08:17:39;5.17;;;1.37;;
63581;SDS011;49727;51.078;17.066;2022-09-01T08:32:40;6.28;;;0.90;;
63581;SDS011;49727;51.078;17.066;2022-09-01T08:47:41;3.13;;;0.70;;
63581;SDS011;49727;51.078;17.066;2022-09-01T09:18:25;3.07;;;1.47;;
63581;SDS011;49727;51.078;17.066;2022-09-01T09:33:34;2.70;;;1.37;;
63581;SDS011;49727;51.078;17.066;2022-09-01T09:48:36;0.97;;;0.60;;
63581;SDS011;49727;51.078;17.066;2022-09-01T10:03:47;6.47;;;1.17;;
63581;SDS011;49727;51.078;17.066;2022-09-01T10:18:49;2.90;;;0.80;;
63581;SDS011;49727;51.078;17.066;2022-09-01T10:43:43;3.03;;;0.50;;
63581;SDS011;49727;51.078;17.066;2022-09-01T10:58:49;1.80;;;0.53;;
63581;SDS011;49727;51.078;17.066;2022-09-01T11:14:02;3.23;;;0.50;;
63581;SDS011;49727;51.078;17.066;2022-09-01T11:45:06;0.73;;;0.57;;
63581;SDS011;49727;51.078;17.066;2022-09-01T12:00:16;3.90;;;0.77;;
63581;SDS011;49727;51.078;17.066;2022-09-01T12:15:26;5.70;;;0.70;;
63581;SDS011;49727;51.078;17.066;2022-09-01T12:30:26;2.13;;;0.60;;
63581;SDS011;49727;51.078;17.066;2022-09-01T12:45:41;1.87;;;0.80;;
63581;SDS011;49727;51.078;17.066;2022-09-01T13:16:04;1.60;;;0.53;;
63581;SDS011;49727;51.078;17.066;2022-09-01T13:31:11;0.97;;;0.47;;
63581;SDS011;49727;51.078;17.066;2022-09-01T13:46:12;1.37;;;0.57;;
63581;SDS011;49727;51.078;17.066;2022-09-01T14:01:13;1.52;;;0.35;;
63581;SDS011;49727;51.078;17.066;2022-09-01T14:16:14;2.70;;;0.60;;
63581;SDS011;49727;51.078;17.066;2022-09-01T14:31:15;1.00;;;0.35;;
63581;SDS011;49727;51.078;17.066;2022-09-01T14:46:17;2.03;;;0.80;;
63581;SDS011;49727;51.078;17.066;2022-09-01T15:01:19;3.57;;;0.63;;
63581;SDS011;49727;51.078;17.066;2022-09-01T15:16:21;3.07;;;0.80;;
63581;SDS011;49727;51.078;17.066;2022-09-01T15:31:24;1.20;;;0.40;;
63581;SDS011;49727;51.078;17.066;2022-09-01T15:46:32;0.97;;;0.60;;
63581;SDS011;49727;51.078;17.066;2022-09-01T16:01:36;3.03;;;0.50;;
63581;SDS011;49727;51.078;17.066;2022-09-01T16:16:48;1.80;;;0.83;;
63581;SDS011;49727;51.078;17.066;2022-09-01T16:31:58;6.50;;;0.90;;
63581;SDS011;49727;51.078;17.066;2022-09-01T16:47:02;6.77;;;1.03;;
63581;SDS011;49727;51.078;17.066;2022-09-01T17:18:02;2.47;;;0.50;;
63581;SDS011;49727;51.078;17.066;2022-09-01T17:48:32;2.57;;;0.80;;
63581;SDS011;49727;51.078;17.066;2022-09-01T18:04:03;6.70;;;1.17;;
63581;SDS011;49727;51.078;17.066;2022-09-01T18:19:17;1.93;;;0.70;;
63581;SDS011;49727;51.078;17.066;2022-09-01T19:04:57;5.30;;;1.50;;
63581;SDS011;49727;51.078;17.066;2022-09-01T19:35:12;5.07;;;1.67;;
63581;SDS011;49727;51.078;17.066;2022-09-01T19:50:15;4.30;;;1.57;;
63581;SDS011;49727;51.078;17.066;2022-09-01T20:20:36;6.60;;;2.13;;
63581;SDS011;49727;51.078;17.066;2022-09-01T20:51:06;4.80;;;2.20;;
63581;SDS011;49727;51.078;17.066;2022-09-01T21:06:18;3.83;;;1.30;;
63581;SDS011;49727;51.078;17.066;2022-09-01T21:36:45;4.23;;;1.80;;
63581;SDS011;49727;51.078;17.066;2022-09-01T21:51:45;7.07;;;1.98;;
63581;SDS011;49727;51.078;17.066;2022-09-01T22:06:47;6.20;;;1.70;;
63581;SDS011;49727;51.078;17.066;2022-09-01T22:21:47;4.97;;;1.80;;
63581;SDS011;49727;51.078;17.066;2022-09-01T22:36:48;4.10;;;1.65;;
63581;SDS011;49727;51.078;17.066;2022-09-01T22:51:48;3.03;;;1.55;;
63581;SDS011;49727;51.078;17.066;2022-09-01T23:06:50;3.17;;;1.65;;
63581;SDS011;49727;51.078;17.066;2022-09-01T23:21:51;3.47;;;1.87;;
63581;SDS011;49727;51.078;17.066;2022-09-01T23:36:51;5.15;;;2.17;;
63581;SDS011;49727;51.078;17.066;2022-09-01T23:51:52;6.15;;;2.50;;
